Time;durP1;ratioP1;P1;durP2;ratioP2;P2;SDS_P1;SDS_P2;PMS_P1;PMS_P2;Temp;Humidity;BMP_temperature;BMP_pressure;BME280_temperature;BME280_humidity;BME280_pressure;Samples;Min_cycle;Max_cycle;Signal;HPM_P1;HPM_P2
2021/04/15 00:00:42;;;;;;;6.75;4.53;;;;;;;7.67;51.66;99756.25;5050296;28;20032;-38
2021/04/15 00:03:15;;;;;;;5.07;3.92;;;;;;;7.33;52.48;99710.81;5051753;28;20021;-38
2021/04/15 00:05:40;;;;;;;5.18;4.13;;;;;;;7.55;52.24;99735.50;5051375;28;20033;-38
2021/04/15 00:08:06;;;;;;;6.10;4.40;;;;;;;7.51;52.64;99759.91;5051471;28;20407;-38
2021/04/15 00:10:34;;;;;;;6.22;4.53;;;;;;;7.33;52.89;99749.66;5051462;28;20464;-38
2021/04/15 00:12:59;;;;;;;6.00;4.20;;;;;;;7.41;52.54;99750.41;5051293;28;20032;-38
2021/04/15 00:15:25;;;;;;;5.75;4.10;;;;;;;7.50;52.74;99752.97;5051501;28;20035;-38
2021/04/15 00:17:50;;;;;;;5.97;4.28;;;;;;;7.58;51.30;99763.47;5051235;28;20475;-38
2021/04/15 00:20:16;;;;;;;6.10;4.50;;;;;;;7.49;51.58;99757.44;5051191;28;20366;-38
2021/04/15 00:22:41;;;;;;;7.90;4.47;;;;;;;7.64;51.76;99760.09;5051382;28;20420;-38
2021/04/15 00:25:08;;;;;;;6.03;4.25;;;;;;;7.68;51.11;99755.25;5051446;28;20037;-37
2021/04/15 00:27:33;;;;;;;6.65;3.90;;;;;;;7.51;51.90;99755.44;5051132;28;20441;-38
2021/04/15 00:29:58;;;;;;;5.25;3.90;;;;;;;7.53;51.82;99744.66;5049755;28;20150;-38
2021/04/15 00:32:24;;;;;;;4.90;4.10;;;;;;;7.56;51.59;99760.19;5051003;28;20040;-38
2021/04/15 00:34:49;;;;;;;5.70;4.30;;;;;;;7.54;51.28;99748.94;5050855;28;20476;-38
2021/04/15 00:37:15;;;;;;;5.32;3.90;;;;;;;7.62;50.77;99757.63;5050683;28;20078;-38
2021/04/15 00:39:40;;;;;;;4.85;3.95;;;;;;;7.49;51.36;99761.94;5050580;28;20025;-39
2021/04/15 00:42:06;;;;;;;5.45;3.78;;;;;;;7.39;51.81;99759.56;5050814;28;20100;-38
2021/04/15 00:44:32;;;;;;;5.43;4.05;;;;;;;7.64;51.23;99757.44;5050770;28;20477;-39
2021/04/15 00:46:59;;;;;;;5.28;3.90;;;;;;;7.51;51.64;99755.44;5046950;28;20025;-38
2021/04/15 00:49:53;;;;;;;5.82;4.07;;;;;;;7.64;51.54;99757.44;5029198;28;20052;-38
2021/04/15 00:52:19;;;;;;;5.88;4.30;;;;;;;7.58;51.84;99751.06;5027618;28;20041;-38
2021/04/15 00:55:02;;;;;;;5.07;3.88;;;;;;;7.57;52.08;99754.69;5013167;28;20489;-38
2021/04/15 00:57:31;;;;;;;5.20;3.72;;;;;;;7.48;52.35;99752.31;5030789;28;20033;-38
2021/04/15 00:59:56;;;;;;;5.63;3.85;;;;;;;7.31;52.22;99751.69;5025150;28;20111;-37
2021/04/15 01:02:22;;;;;;;4.95;3.70;;;;;;;7.39;52.47;99749.78;5048806;28;20360;-38
2021/04/15 01:04:50;;;;;;;5.05;3.70;;;;;;;7.24;51.89;99728.59;5050412;28;20108;-38
2021/04/15 01:07:15;;;;;;;4.80;3.65;;;;;;;7.42;51.60;99738.84;5050672;28;20134;-37
2021/04/15 01:09:40;;;;;;;5.45;3.60;;;;;;;7.18;52.25;99742.56;5049939;28;20076;-37
2021/04/15 01:12:36;;;;;;;4.95;3.60;;;;;;;7.30;51.83;99742.91;5049107;28;20443;-38
2021/04/15 01:15:09;;;;;;;5.28;3.63;;;;;;;7.25;52.09;99737.34;5048679;28;20025;-38
2021/04/15 01:17:36;;;;;;;5.43;3.80;;;;;;;7.47;51.65;99740.91;5049265;28;20087;-37
2021/04/15 01:20:35;;;;;;;5.07;3.50;;;;;;;7.23;51.61;99744.66;5048809;28;20456;-38
2021/04/15 01:23:25;;;;;;;4.57;3.38;;;;;;;7.11;52.23;99741.63;5050175;28;20052;-38
2021/04/15 01:26:22;;;;;;;4.93;3.40;;;;;;;7.21;52.37;99721.00;5050012;28;20075;-37
2021/04/15 01:28:58;;;;;;;5.63;3.38;;;;;;;7.03;52.44;99742.53;5050265;28;20491;-38
2021/04/15 01:31:47;;;;;;;4.90;3.58;;;;;;;6.93;52.94;99736.69;5050328;28;20032;-38
2021/04/15 01:34:33;;;;;;;4.47;3.42;;;;;;;6.94;53.17;99737.50;5047979;28;20033;-38
2021/04/15 01:37:01;;;;;;;5.32;3.53;;;;;;;7.31;52.14;99741.94;5014962;28;20056;-38
2021/04/15 01:39:43;;;;;;;4.53;3.60;;;;;;;7.20;52.80;99743.19;5012440;28;20101;-38
2021/04/15 01:42:12;;;;;;;4.50;3.80;;;;;;;7.37;52.31;99743.84;5012523;28;20025;-38
2021/04/15 01:44:58;;;;;;;5.35;3.65;;;;;;;6.98;53.03;99736.13;5028723;28;20037;-38
2021/04/15 01:47:27;;;;;;;6.90;3.70;;;;;;;6.82;54.22;99742.41;5035723;28;20131;-38
2021/04/15 01:49:56;;;;;;;4.75;3.53;;;;;;;7.05;53.46;99742.34;5032394;28;20100;-37
2021/04/15 01:52:22;;;;;;;5.03;3.88;;;;;;;7.09;53.35;99735.69;5048704;28;20025;-37
2021/04/15 01:54:56;;;;;;;4.28;3.28;;;;;;;6.81;53.55;99730.16;5049787;28;20029;-38
2021/04/15 01:57:26;;;;;;;4.25;3.25;;;;;;;6.65;54.28;99745.19;5032449;28;20396;-38
2021/04/15 01:59:57;;;;;;;4.90;3.55;;;;;;;6.54;54.35;99735.03;5048118;28;20106;-38
2021/04/15 02:02:25;;;;;;;5.15;3.72;;;;;;;6.72;54.28;99741.81;5032954;28;20029;-38
2021/04/15 02:05:32;;;;;;;4.20;3.30;;;;;;;6.79;54.27;99748.88;5032010;28;20484;-38
2021/04/15 02:08:10;;;;;;;5.00;3.80;;;;;;;6.88;53.90;99748.81;5048124;28;20029;-38
2021/04/15 02:10:36;;;;;;;5.05;3.67;;;;;;;6.61;54.78;99741.25;5049465;28;20052;-38
2021/04/15 02:13:02;;;;;;;5.15;3.50;;;;;;;6.58;54.72;99748.72;5015299;28;20028;-38
2021/04/15 02:15:33;;;;;;;5.28;3.88;;;;;;;6.61;54.59;99748.38;5031830;28;20056;-38
2021/04/15 02:18:06;;;;;;;6.70;3.80;;;;;;;6.72;54.46;99741.81;5032161;28;20043;-38
2021/04/15 02:20:31;;;;;;;5.40;3.80;;;;;;;6.76;54.57;99751.03;5048340;28;20021;-37
2021/04/15 02:23:02;;;;;;;5.82;3.83;;;;;;;6.34;55.28;99757.63;5049894;28;20019;-37
2021/04/15 02:25:31;;;;;;;4.97;3.88;;;;;;;6.58;54.42;99756.66;5049556;28;20096;-37
2021/04/15 02:28:06;;;;;;;4.80;3.55;;;;;;;6.49;54.49;99755.06;5049709;28;20520;-37
2021/04/15 02:30:56;;;;;;;4.95;3.55;;;;;;;6.38;55.17;99762.41;5053590;28;20033;-38
2021/04/15 02:33:58;;;;;;;4.75;3.60;;;;;;;6.22;54.90;99768.59;5035728;28;20025;-38
2021/04/15 02:36:24;;;;;;;5.30;3.90;;;;;;;6.27;54.99;99770.75;5051946;28;20029;-37
2021/04/15 02:39:04;;;;;;;5.85;3.72;;;;;;;6.30;54.37;99766.91;5052051;28;20048;-38
2021/04/15 02:41:32;;;;;;;5.22;3.67;;;;;;;6.07;54.52;99770.34;5051847;28;20032;-38
2021/04/15 02:44:10;;;;;;;5.95;3.53;;;;;;;6.00;54.44;99777.34;5035288;28;20029;-38
2021/04/15 02:46:39;;;;;;;5.40;3.90;;;;;;;6.15;54.72;99778.25;5051899;28;20104;-38
2021/04/15 02:49:05;;;;;;;5.18;3.50;;;;;;;6.01;54.42;99771.03;5051568;28;20037;-38
2021/04/15 02:51:52;;;;;;;5.25;3.80;;;;;;;6.06;54.06;99756.31;5034939;28;20508;-38
2021/04/15 02:54:38;;;;;;;4.50;3.35;;;;;;;6.01;53.92;99768.41;5040805;28;20484;-38
2021/04/15 02:57:08;;;;;;;5.20;3.83;;;;;;;6.24;53.14;99786.94;5037534;28;20021;-38
2021/04/15 02:59:46;;;;;;;5.25;3.22;;;;;;;6.00;53.53;99782.63;5051575;28;20074;-37
2021/04/15 03:02:23;;;;;;;5.07;3.58;;;;;;;6.18;53.30;99787.63;5051692;28;20044;-38
2021/04/15 03:04:55;;;;;;;13.93;8.10;;;;;;;6.35;53.20;99799.75;5035857;28;20055;-38
2021/04/15 03:07:21;;;;;;;9.32;5.97;;;;;;;6.22;53.63;99804.78;5015327;28;20080;-38
2021/04/15 03:09:46;;;;;;;17.80;9.85;;;;;;;6.04;54.83;99799.78;5031325;28;20447;-38
2021/04/15 03:12:18;;;;;;;14.98;7.43;;;;;;;6.22;54.33;99799.50;5031467;28;20033;-38
2021/04/15 03:15:00;;;;;;;7.00;4.50;;;;;;;6.13;54.93;99816.41;5031361;28;20029;-38
2021/04/15 03:17:25;;;;;;;6.30;4.35;;;;;;;6.13;55.05;99801.38;5015140;28;20024;-38
2021/04/15 03:20:00;;;;;;;6.40;4.47;;;;;;;6.15;55.49;99812.59;5024620;28;20405;-38
2021/04/15 03:22:34;;;;;;;5.80;4.40;;;;;;;5.83;55.85;99806.44;5034825;28;20021;-38
2021/04/15 03:25:00;;;;;;;7.60;4.68;;;;;;;6.04;55.98;99807.69;5035112;28;20021;-38
2021/04/15 03:27:36;;;;;;;6.80;4.00;;;;;;;5.85;55.45;99817.66;5050935;28;20021;-38
2021/04/15 03:30:12;;;;;;;7.05;4.50;;;;;;;6.01;55.26;99811.50;5050870;28;20032;-38
2021/04/15 03:32:50;;;;;;;5.20;3.88;;;;;;;6.04;55.01;99811.16;5046028;28;20100;-39
2021/04/15 03:35:32;;;;;;;5.32;4.03;;;;;;;6.14;54.69;99821.50;5015952;28;20145;-38
2021/04/15 03:38:12;;;;;;;5.55;3.92;;;;;;;6.16;55.08;99811.59;5032356;28;20036;-38
2021/04/15 03:40:38;;;;;;;7.18;3.72;;;;;;;5.77;56.15;99816.84;5030302;28;20128;-38
2021/04/15 03:43:19;;;;;;;8.30;4.00;;;;;;;5.92;55.06;99820.44;5014360;28;20048;-38
2021/04/15 03:45:48;;;;;;;12.85;6.72;;;;;;;5.96;55.01;99834.97;5030959;28;20025;-38
2021/04/15 03:48:25;;;;;;;5.45;3.50;;;;;;;6.01;54.36;99819.41;5014276;28;20087;-38
2021/04/15 03:51:02;;;;;;;4.53;3.33;;;;;;;6.03;54.11;99827.19;5015657;28;20056;-37
2021/04/15 03:53:31;;;;;;;6.00;3.50;;;;;;;5.99;54.63;99826.69;5030251;28;20105;-38
2021/04/15 03:55:58;;;;;;;6.65;3.50;;;;;;;6.16;53.28;99842.50;5029772;28;20029;-48
2021/04/15 03:58:43;;;;;;;4.78;3.40;;;;;;;6.14;52.65;99837.38;5029779;28;20029;-52
2021/04/15 04:01:20;;;;;;;5.75;3.38;;;;;;;6.28;52.93;99824.41;5029058;28;20021;-50
2021/04/15 04:03:47;;;;;;;4.38;3.20;;;;;;;6.30;52.73;99827.72;5028708;28;20060;-50
2021/04/15 04:06:18;;;;;;;10.05;3.55;;;;;;;6.41;52.28;99824.69;5012531;28;20077;-54
2021/04/15 04:08:46;;;;;;;5.10;3.03;;;;;;;6.41;52.19;99824.69;5029093;28;20064;-50
2021/04/15 04:11:13;;;;;;;5.53;3.22;;;;;;;6.40;52.57;99834.44;5030217;28;20045;-54
2021/04/15 04:13:41;;;;;;;6.28;4.00;;;;;;;6.34;53.11;99837.78;5029045;28;20029;-50
2021/04/15 04:16:15;;;;;;;5.50;3.83;;;;;;;6.28;53.84;99824.41;5028372;28;20037;-53
2021/04/15 04:19:06;;;;;;;6.68;4.03;;;;;;;6.29;53.93;99834.00;5030737;28;20043;-51
2021/04/15 04:21:56;;;;;;;5.70;4.07;;;;;;;6.42;53.74;99842.19;5026728;28;20068;-38
2021/04/15 04:24:54;;;;;;;6.10;3.70;;;;;;;6.44;53.25;99842.84;5027083;28;20037;-38
2021/04/15 04:27:23;;;;;;;4.78;3.85;;;;;;;6.58;52.56;99849.19;5013009;28;20086;-38
2021/04/15 04:29:54;;;;;;;6.50;4.10;;;;;;;6.72;52.54;99844.97;5028776;28;20022;-37
2021/04/15 04:32:21;;;;;;;5.25;4.05;;;;;;;7.08;51.49;99853.13;5027419;28;20119;-37
2021/04/15 04:34:52;;;;;;;6.10;4.10;;;;;;;7.31;50.76;99858.41;5010940;28;20475;-37
2021/04/15 04:37:17;;;;;;;6.82;4.50;;;;;;;7.60;50.53;99862.94;5012729;28;20034;-38
2021/04/15 04:39:43;;;;;;;7.40;4.20;;;;;;;7.45;51.06;99870.03;5028973;28;20331;-38
2021/04/15 04:42:23;;;;;;;7.38;4.63;;;;;;;7.54;50.88;99862.81;5029901;28;20493;-38
2021/04/15 04:44:53;;;;;;;6.20;4.68;;;;;;;7.43;51.10;99856.97;5028222;28;20030;-37
2021/04/15 04:47:43;;;;;;;8.32;4.30;;;;;;;7.41;50.37;99858.97;5033220;28;20212;-37
2021/04/15 04:50:25;;;;;;;8.65;5.28;;;;;;;7.52;50.56;99857.72;5049370;28;20059;-38
2021/04/15 04:52:58;;;;;;;8.90;4.43;;;;;;;7.85;48.93;99860.03;5049169;28;20032;-38
2021/04/15 04:55:57;;;;;;;6.40;4.15;;;;;;;8.19;48.73;99850.69;5049660;28;20111;-38
2021/04/15 04:58:23;;;;;;;5.70;3.90;;;;;;;8.52;47.38;99858.22;5035488;28;20041;-38
2021/04/15 05:00:53;;;;;;;6.47;4.20;;;;;;;9.06;47.06;99865.69;5029844;28;20041;-38
2021/04/15 05:03:21;;;;;;;;;;;;;;;9.50;46.22;99869.13;5038779;28;20029;-38
2021/04/15 05:05:47;;;;;;;7.57;4.22;;;;;;;9.89;44.98;99870.41;5044861;28;19979;-38
2021/04/15 05:08:21;;;;;;;6.97;4.70;;;;;;;9.93;45.12;99866.34;5028360;28;20037;-41
2021/04/15 05:10:46;;;;;;;5.82;3.90;;;;;;;10.17;44.36;99867.69;5028329;28;20362;-38
2021/04/15 05:13:15;;;;;;;6.68;4.10;;;;;;;9.96;43.41;99864.13;5015621;28;20040;-38
2021/04/15 05:15:41;;;;;;;5.13;3.53;;;;;;;9.71;44.65;99855.78;5038335;28;20025;-38
2021/04/15 05:18:07;;;;;;;5.97;3.90;;;;;;;10.20;44.54;99864.63;5036767;28;20035;-39
2021/04/15 05:20:33;;;;;;;6.75;4.80;;;;;;;10.29;43.88;99852.81;5039854;28;20367;-38
2021/04/15 05:23:09;;;;;;;6.70;5.00;;;;;;;10.48;43.61;99863.75;5035792;28;20021;-37
2021/04/15 05:26:10;;;;;;;5.82;3.55;;;;;;;10.96;41.86;99864.47;5041340;28;20040;-38
2021/04/15 05:28:36;;;;;;;8.50;5.57;;;;;;;11.42;41.61;99872.69;5029306;28;20106;-37
2021/04/15 05:31:07;;;;;;;12.13;7.95;;;;;;;11.82;41.63;99868.16;5036237;28;20022;-38
2021/04/15 05:33:32;;;;;;;5.05;3.30;;;;;;;12.06;40.26;99865.84;5033854;28;20032;-39
2021/04/15 05:36:07;;;;;;;4.90;3.70;;;;;;;11.91;40.06;99866.91;5020653;28;20053;-38
2021/04/15 05:38:40;;;;;;;5.30;3.70;;;;;;;12.71;42.14;99869.22;5038311;28;20025;-38
2021/04/15 05:41:07;;;;;;;3.95;3.30;;;;;;;12.87;37.98;99864.41;5029396;28;20092;-38
2021/04/15 05:43:32;;;;;;;4.68;3.40;;;;;;;12.74;38.99;99872.50;5039306;28;20013;-38
2021/04/15 05:46:06;;;;;;;4.95;3.40;;;;;;;12.51;39.56;99865.88;5036198;28;20025;-39
2021/04/15 05:48:31;;;;;;;5.63;3.72;;;;;;;12.48;38.46;99864.44;5036349;28;20418;-38
2021/04/15 05:50:57;;;;;;;6.70;3.65;;;;;;;12.71;38.13;99860.41;5039074;28;20099;-38
2021/04/15 05:53:26;;;;;;;6.22;3.53;;;;;;;13.76;37.30;99850.97;5048840;28;20025;-39
2021/04/15 05:56:02;;;;;;;4.35;3.60;;;;;;;13.85;37.15;99860.34;5031006;28;20462;-37
2021/04/15 05:58:38;;;;;;;7.10;4.07;;;;;;;14.25;36.29;99859.88;5047677;28;20032;-48
2021/04/15 06:01:39;;;;;;;7.15;4.80;;;;;;;14.53;35.77;99863.88;5049070;28;20056;-50
2021/04/15 06:04:07;;;;;;;5.70;4.10;;;;;;;14.66;35.58;99858.38;5036570;28;20193;-49
2021/04/15 06:06:35;;;;;;;4.00;3.60;;;;;;;13.64;36.08;99854.38;5039538;28;20029;-48
2021/04/15 06:09:01;;;;;;;5.28;3.85;;;;;;;13.94;40.12;99860.88;5042509;28;20021;-49
2021/04/15 06:11:39;;;;;;;6.85;4.32;;;;;;;12.56;37.54;99854.53;5038811;28;20052;-51
2021/04/15 06:14:27;;;;;;;8.82;4.88;;;;;;;13.03;41.57;99868.44;5041692;28;20040;-49
2021/04/15 06:17:17;;;;;;;5.85;4.10;;;;;;;13.60;37.45;99858.53;5042103;28;20021;-49
2021/04/15 06:19:43;;;;;;;7.22;4.05;;;;;;;13.92;37.12;99858.41;5041641;28;20025;-51
2021/04/15 06:22:17;;;;;;;7.15;4.13;;;;;;;14.72;35.18;99875.41;5015052;28;20080;-49
2021/04/15 06:24:44;;;;;;;7.20;4.20;;;;;;;15.10;36.00;99867.00;5031078;28;20465;-49
2021/04/15 06:27:09;;;;;;;6.35;4.10;;;;;;;15.62;33.89;99866.34;5014584;28;20017;-38
2021/04/15 06:29:48;;;;;;;7.70;4.03;;;;;;;15.12;35.68;99858.72;5014786;28;20088;-38
2021/04/15 06:32:16;;;;;;;6.43;4.28;;;;;;;16.37;33.68;99862.88;5036349;28;20032;-38
2021/04/15 06:34:42;;;;;;;6.45;4.53;;;;;;;17.17;33.63;99866.50;5024646;28;20462;-39
2021/04/15 06:37:16;;;;;;;7.25;3.75;;;;;;;16.79;33.53;99872.50;5040577;28;20996;-38
2021/04/15 06:39:50;;;;;;;5.38;3.90;;;;;;;17.11;32.53;99870.13;5044972;28;20083;-38
2021/04/15 06:42:58;;;;;;;4.30;3.45;;;;;;;16.66;32.39;99870.09;5026452;28;20052;-39
2021/04/15 06:45:56;;;;;;;6.35;3.95;;;;;;;16.03;33.10;99870.78;5043037;28;20512;-39
2021/04/15 06:48:51;;;;;;;4.70;3.47;;;;;;;15.23;34.98;99869.47;5036597;28;20040;-39
2021/04/15 06:51:58;;;;;;;5.95;3.70;;;;;;;14.78;38.33;99863.78;4990084;28;20057;-38
2021/04/15 06:54:37;;;;;;;5.82;4.00;;;;;;;16.50;33.92;99863.63;4998009;28;20077;-39
2021/04/15 06:57:31;;;;;;;6.18;3.95;;;;;;;16.64;33.51;99854.25;5029451;28;20061;-38
2021/04/15 07:00:17;;;;;;;7.13;3.72;;;;;;;16.65;32.56;99863.13;5030815;28;20498;-38
2021/04/15 07:02:57;;;;;;;7.97;3.15;;;;;;;15.54;34.01;99862.16;5032129;28;20076;-40
2021/04/15 07:05:25;;;;;;;10.00;3.60;;;;;;;15.31;34.14;99854.91;5031830;28;20037;-39
2021/04/15 07:08:00;;;;;;;3.92;3.15;;;;;;;15.18;36.16;99853.25;5030844;28;20342;-38
2021/04/15 07:10:46;;;;;;;5.07;3.83;;;;;;;15.13;34.54;99860.34;5030826;28;20041;-38
2021/04/15 07:13:14;;;;;;;3.88;3.28;;;;;;;15.03;34.56;99856.38;5029782;28;20359;-38
2021/04/15 07:15:59;;;;;;;6.30;3.65;;;;;;;15.04;34.72;99866.06;5041124;28;20449;-38
2021/04/15 07:18:42;;;;;;;3.85;3.13;;;;;;;15.21;34.01;99847.44;5048501;28;20117;-52
2021/04/15 07:21:23;;;;;;;3.58;3.00;;;;;;;14.72;34.24;99872.72;5040333;28;20025;-52
2021/04/15 07:24:26;;;;;;;4.13;3.30;;;;;;;14.60;34.58;99856.59;5015131;28;20013;-49
2021/04/15 07:27:12;;;;;;;4.28;3.50;;;;;;;15.24;34.18;99849.63;5031764;28;20052;-50
2021/04/15 07:29:56;;;;;;;5.07;3.70;;;;;;;16.21;33.04;99852.88;5040545;28;20112;-50
2021/04/15 07:32:40;;;;;;;4.47;3.88;;;;;;;16.27;32.67;99849.22;5041440;28;20029;-53
2021/04/15 07:35:23;;;;;;;6.05;3.40;;;;;;;16.44;32.72;99848.47;5025167;28;20032;-51
2021/04/15 07:37:49;;;;;;;4.32;3.60;;;;;;;16.54;33.08;99849.47;5036446;28;20037;-51
2021/04/15 07:40:20;;;;;;;4.85;3.78;;;;;;;16.76;32.47;99860.38;5030967;28;20033;-50
2021/04/15 07:43:07;;;;;;;5.93;4.60;;;;;;;16.24;32.96;99841.66;5029411;28;20064;-52
2021/04/15 07:46:03;;;;;;;4.68;3.67;;;;;;;16.06;32.86;99844.50;5033566;28;20072;-52
2021/04/15 07:48:50;;;;;;;5.93;3.80;;;;;;;16.07;33.36;99836.22;5040827;28;20043;-52
2021/04/15 07:51:53;;;;;;;4.75;3.70;;;;;;;16.73;33.10;99835.84;5050465;28;20060;-48
2021/04/15 07:54:55;;;;;;;4.15;3.50;;;;;;;17.89;31.33;99832.56;5049679;28;20033;-49
2021/04/15 07:57:23;;;;;;;4.03;3.40;;;;;;;18.02;30.16;99825.19;5037050;28;20079;-52
2021/04/15 08:00:16;;;;;;;5.72;3.75;;;;;;;18.04;30.58;99826.56;5039626;28;20035;-51
2021/04/15 08:02:50;;;;;;;5.10;3.53;;;;;;;17.73;30.46;99830.72;5029555;28;20041;-49
2021/04/15 08:05:22;;;;;;;4.82;3.38;;;;;;;17.66;31.34;99835.47;5030720;28;20064;-51
2021/04/15 08:08:06;;;;;;;3.85;3.45;;;;;;;17.60;30.83;99831.88;5030877;28;20086;-52
2021/04/15 08:10:31;;;;;;;5.00;3.42;;;;;;;18.03;30.41;99837.59;5030680;28;20050;-53
2021/04/15 08:13:26;;;;;;;4.00;3.30;;;;;;;17.66;31.04;99827.38;5030404;28;20506;-52
2021/04/15 08:16:10;;;;;;;5.35;3.88;;;;;;;18.11;30.91;99829.88;5028109;28;20497;-49
2021/04/15 08:18:50;;;;;;;5.05;3.50;;;;;;;17.84;31.05;99829.84;5030765;28;20022;-48
2021/04/15 08:21:37;;;;;;;4.20;3.63;;;;;;;18.12;30.84;99834.19;5038908;28;20029;-38
2021/04/15 08:24:26;;;;;;;3.83;3.10;;;;;;;18.75;29.79;99823.84;5041492;28;20025;-38
2021/04/15 08:27:10;;;;;;;5.63;3.55;;;;;;;19.16;29.36;99828.00;5039078;28;20418;-38
2021/04/15 08:29:59;;;;;;;3.60;2.95;;;;;;;18.57;29.03;99829.59;5040765;28;20385;-39
2021/04/15 08:32:56;;;;;;;3.85;3.00;;;;;;;18.08;29.89;99818.81;5039333;28;20079;-39
2021/04/15 08:35:34;;;;;;;4.55;3.03;;;;;;;17.19;29.73;99825.88;5040421;28;20032;-39
2021/04/15 08:38:11;;;;;;;5.03;3.22;;;;;;;18.53;28.88;99817.69;5041006;28;20100;-40
2021/04/15 08:40:52;;;;;;;3.80;3.30;;;;;;;18.91;28.39;99800.56;5041263;28;20025;-39
2021/04/15 08:43:20;;;;;;;;;;;;;;;19.17;29.16;99808.81;5039309;28;20032;-53
2021/04/15 08:46:00;;;;;;;5.68;3.20;;;;;;;19.18;28.64;99802.38;5044217;28;19961;-50
2021/04/15 08:48:32;;;;;;;4.32;2.90;;;;;;;18.76;27.95;99814.66;5024728;28;20094;-49
2021/04/15 08:51:19;;;;;;;5.10;3.15;;;;;;;18.66;28.02;99809.19;5038519;28;20033;-49
2021/04/15 08:54:01;;;;;;;3.28;2.90;;;;;;;18.84;28.31;99808.03;5040467;28;20392;-48
2021/04/15 08:56:41;;;;;;;5.05;4.25;;;;;;;19.00;28.62;99811.69;5039209;28;20012;-49
2021/04/15 08:59:14;;;;;;;4.25;3.35;;;;;;;19.32;28.60;99800.88;5029918;28;20220;-49
2021/04/15 09:01:42;;;;;;;5.28;3.40;;;;;;;19.95;27.24;99796.63;5039125;28;20093;-53
2021/04/15 09:04:13;;;;;;;5.68;3.50;;;;;;;19.86;26.90;99797.13;5040399;28;20024;-51
2021/04/15 09:06:45;;;;;;;5.38;3.20;;;;;;;20.64;26.29;99796.28;5037614;28;20017;-50
2021/04/15 09:09:21;;;;;;;4.10;2.92;;;;;;;20.90;26.26;99793.59;5028379;28;20025;-50
2021/04/15 09:12:18;;;;;;;4.22;3.40;;;;;;;20.72;26.91;99780.63;5028195;28;20065;-53
2021/04/15 09:15:15;;;;;;;3.92;3.40;;;;;;;20.65;27.11;99799.78;5022398;28;20067;-53
2021/04/15 09:18:08;;;;;;;4.35;3.70;;;;;;;20.59;26.86;99800.84;5046580;28;20132;-49
2021/04/15 09:20:47;;;;;;;5.78;3.63;;;;;;;18.82;28.89;99788.59;5048119;28;20113;-48
2021/04/15 09:23:36;;;;;;;4.65;3.97;;;;;;;19.24;28.62;99787.03;5033339;28;20126;-50
2021/04/15 09:27:06;;;;;;;4.35;3.85;;;;;;;18.74;29.54;99776.38;5033965;28;20103;-50
2021/04/15 09:29:57;;;;;;;5.93;4.20;;;;;;;18.60;29.40;99777.88;4991097;28;20131;-51
2021/04/15 09:33:03;;;;;;;6.18;4.32;;;;;;;19.29;28.17;99776.28;4993441;28;20089;-52
2021/04/15 09:35:56;;;;;;;6.45;4.50;;;;;;;18.55;29.43;99788.59;5033930;28;20187;-51
2021/04/15 09:38:53;;;;;;;6.35;4.43;;;;;;;18.26;29.88;99777.25;5053001;28;20029;-51
2021/04/15 09:41:51;;;;;;;5.28;3.85;;;;;;;17.13;30.74;99775.78;5053098;28;20055;-51
2021/04/15 09:44:50;;;;;;;5.60;3.75;;;;;;;17.91;30.62;99767.72;5028157;28;20040;-49
2021/04/15 09:47:28;;;;;;;4.20;3.70;;;;;;;18.19;30.29;99768.59;5054857;28;20503;-51
2021/04/15 09:50:26;;;;;;;6.05;3.90;;;;;;;18.17;30.56;99763.44;5054312;28;20032;-50
2021/04/15 09:53:10;;;;;;;6.60;4.00;;;;;;;18.37;29.87;99773.59;5055255;28;20020;-50
2021/04/15 09:55:54;;;;;;;4.22;3.42;;;;;;;18.35;29.06;99773.88;5054701;28;20119;-51
2021/04/15 09:58:23;;;;;;;4.45;3.63;;;;;;;17.56;30.22;99758.13;5054201;28;20185;-52
2021/04/15 10:00:49;;;;;;;4.07;3.50;;;;;;;17.82;29.17;99758.41;5054081;28;20029;-50
2021/04/15 10:03:28;;;;;;;7.97;3.88;;;;;;;17.43;30.13;99751.22;5054461;28;20047;-50
2021/04/15 10:06:15;;;;;;;7.28;3.70;;;;;;;18.03;29.74;99754.94;5053384;28;20409;-49
2021/04/15 10:08:57;;;;;;;4.78;3.75;;;;;;;18.70;28.19;99744.81;5054261;28;20594;-50
2021/04/15 10:11:43;;;;;;;4.82;3.90;;;;;;;18.59;28.59;99743.91;5054394;28;20505;-48
2021/04/15 10:14:15;;;;;;;4.55;3.70;;;;;;;17.66;29.08;99734.00;5054951;28;20021;-47
2021/04/15 10:16:59;;;;;;;6.13;4.00;;;;;;;17.94;29.85;99734.91;5053649;28;20563;-49
2021/04/15 10:19:54;;;;;;;5.90;3.95;;;;;;;17.71;31.05;99731.41;5054756;28;20104;-51
2021/04/15 10:22:47;;;;;;;8.55;4.32;;;;;;;18.46;28.74;99722.78;5017748;28;20080;-50
2021/04/15 10:25:24;;;;;;;5.93;4.75;;;;;;;17.95;29.39;99723.91;5054658;28;20191;-52
2021/04/15 10:28:03;;;;;;;6.07;4.32;;;;;;;18.01;30.23;99726.63;5053171;28;20078;-50
2021/04/15 10:30:58;;;;;;;6.18;4.40;;;;;;;18.74;29.39;99725.16;5053799;28;20467;-49
2021/04/15 10:33:52;;;;;;;5.22;4.00;;;;;;;18.58;28.95;99712.63;5045266;28;20082;-50
2021/04/15 10:36:45;;;;;;;6.10;4.40;;;;;;;18.49;29.69;99716.88;5053315;28;20086;-50
2021/04/15 10:39:41;;;;;;;5.10;4.13;;;;;;;18.44;29.62;99711.44;5054552;28;20023;-50
2021/04/15 10:42:48;;;;;;;7.47;4.05;;;;;;;18.78;28.85;99716.56;5054987;28;20036;-49
2021/04/15 10:45:52;;;;;;;4.97;3.92;;;;;;;18.29;28.73;99718.31;5049141;28;20044;-49
2021/04/15 10:48:20;;;;;;;4.50;3.70;;;;;;;17.05;30.12;99712.50;5046389;28;20029;-50
2021/04/15 10:50:55;;;;;;;6.38;4.07;;;;;;;17.28;30.13;99711.47;5051687;28;20017;-50
2021/04/15 10:53:43;;;;;;;8.18;4.60;;;;;;;18.02;30.25;99717.50;5050095;28;20037;-51
2021/04/15 10:56:10;;;;;;;6.45;3.97;;;;;;;18.51;29.03;99706.66;5051486;28;20033;-51
2021/04/15 10:58:39;;;;;;;4.82;3.95;;;;;;;18.86;29.04;99716.91;5051328;28;20033;-51
2021/04/15 11:01:28;;;;;;;7.07;3.83;;;;;;;18.58;28.27;99717.22;5051396;28;20036;-50
2021/04/15 11:03:55;;;;;;;5.55;4.07;;;;;;;18.47;28.98;99713.63;5051359;28;20056;-51
2021/04/15 11:06:40;;;;;;;5.88;3.95;;;;;;;18.19;29.47;99707.44;5051773;28;20056;-49
2021/04/15 11:09:36;;;;;;;7.82;4.30;;;;;;;17.97;29.55;99710.16;5050337;28;20041;-49
2021/04/15 11:12:14;;;;;;;4.53;3.75;;;;;;;17.24;29.79;99702.28;5050111;28;20420;-50
2021/04/15 11:14:56;;;;;;;7.20;4.32;;;;;;;17.57;30.26;99704.06;5050823;28;20424;-51
2021/04/15 11:17:29;;;;;;;6.60;4.00;;;;;;;18.01;29.48;99702.41;5033461;28;20115;-48
2021/04/15 11:20:23;;;;;;;4.57;3.80;;;;;;;17.87;29.39;99697.41;5051121;28;20090;-50
2021/04/15 11:22:55;;;;;;;4.90;3.80;;;;;;;17.75;29.77;99699.41;5034481;28;20559;-52
2021/04/15 11:25:34;;;;;;;5.40;3.85;;;;;;;18.35;29.02;99692.22;5051108;28;20033;-50
2021/04/15 11:28:02;;;;;;;6.53;4.20;;;;;;;18.66;28.79;99690.63;5051168;28;20033;-50
2021/04/15 11:30:44;;;;;;;6.45;4.22;;;;;;;18.30;28.95;99692.19;5051120;28;20140;-53
2021/04/15 11:33:12;;;;;;;5.07;4.35;;;;;;;18.41;29.26;99693.91;5050379;28;20094;-50
2021/04/15 11:35:39;;;;;;;5.18;4.28;;;;;;;18.49;28.94;99701.53;5050936;28;20044;-53
2021/04/15 11:38:19;;;;;;;4.65;4.15;;;;;;;18.93;28.44;99693.25;5050532;28;20521;-51
2021/04/15 11:40:49;;;;;;;5.05;4.50;;;;;;;18.99;27.92;99687.91;5049452;28;20484;-48
2021/04/15 11:43:22;;;;;;;6.18;4.55;;;;;;;18.13;29.32;99693.13;5050868;28;20571;-52
2021/04/15 11:45:48;;;;;;;5.53;4.45;;;;;;;18.40;29.24;99684.19;5051105;28;20486;-53
2021/04/15 11:48:25;;;;;;;4.90;4.25;;;;;;;18.43;28.92;99686.41;5049220;28;20082;-52
2021/04/15 11:51:08;;;;;;;5.10;4.20;;;;;;;18.54;28.91;99681.88;5033459;28;20029;-52
2021/04/15 11:53:48;;;;;;;6.18;4.55;;;;;;;19.19;28.05;99681.78;5034346;28;20045;-51
2021/04/15 11:56:32;;;;;;;6.30;4.47;;;;;;;18.02;29.89;99690.59;5050399;28;20471;-51
2021/04/15 11:59:20;;;;;;;5.55;4.65;;;;;;;18.38;28.82;99686.34;5050425;28;20029;-51
2021/04/15 12:01:46;;;;;;;6.25;4.43;;;;;;;19.36;27.67;99687.81;5048352;28;20048;-51
2021/04/15 12:04:26;;;;;;;4.88;4.32;;;;;;;19.07;28.02;99682.81;5049354;28;20454;-52
2021/04/15 12:06:58;;;;;;;5.70;4.28;;;;;;;18.53;28.73;99685.66;5050254;28;20100;-51
2021/04/15 12:09:27;;;;;;;4.93;4.05;;;;;;;18.81;28.19;99687.25;5028988;28;20414;-48
2021/04/15 12:12:07;;;;;;;6.07;4.70;;;;;;;18.39;28.63;99669.13;5015085;28;20030;-51
2021/04/15 12:14:34;;;;;;;5.68;4.55;;;;;;;18.78;28.59;99676.16;5029352;28;20439;-51
2021/04/15 12:17:01;;;;;;;5.80;4.30;;;;;;;18.45;28.08;99672.63;5030661;28;20109;-51
2021/04/15 12:19:42;;;;;;;5.20;4.10;;;;;;;18.26;28.05;99672.22;5047164;28;20369;-52
2021/04/15 12:22:11;;;;;;;6.30;4.90;;;;;;;18.65;28.12;99666.63;5050189;28;20029;-51
2021/04/15 12:24:44;;;;;;;6.05;4.40;;;;;;;18.35;28.39;99667.97;5048840;28;20377;-51